createdAt,value
2022-08-14T00:02:03.038Z,11.15
2022-08-14T00:04:42.223Z,10.32
2022-08-14T00:07:14.158Z,11.40
2022-08-14T00:10:01.390Z,12.32
2022-08-14T00:12:37.822Z,8.35
2022-08-14T00:15:18.172Z,13.35
2022-08-14T00:17:47.347Z,10.98
2022-08-14T00:20:23.663Z,12.75
2022-08-14T00:22:57.751Z,10.70
2022-08-14T00:25:30.526Z,10.30
2022-08-14T00:28:15.139Z,10.65
2022-08-14T00:30:43.765Z,9.68
2022-08-14T00:33:16.177Z,11.37
2022-08-14T00:36:37.318Z,10.63
2022-08-14T00:38:34.896Z,11.82
2022-08-14T00:41:10.969Z,10.48
2022-08-14T00:43:41.688Z,10.68
2022-08-14T00:46:32.355Z,11.10
2022-08-14T00:48:59.515Z,15.02
2022-08-14T00:51:38.326Z,14.18
2022-08-14T00:54:16.752Z,11.52
2022-08-14T00:56:54.877Z,10.15
2022-08-14T00:59:25.900Z,11.87
2022-08-14T01:01:59.920Z,10.48
2022-08-14T01:04:51.546Z,12.27
2022-08-14T01:07:22.005Z,10.32
2022-08-14T01:10:08.049Z,11.70
2022-08-14T01:12:40.771Z,12.35
2022-08-14T01:15:14.762Z,12.30
2022-08-14T01:18:01.754Z,12.70
2022-08-14T01:20:49.445Z,7.93
2022-08-14T01:23:18.806Z,11.48
2022-08-14T01:25:51.252Z,9.90
2022-08-14T01:28:46.471Z,8.80
2022-08-14T01:31:14.449Z,10.77
2022-08-14T01:35:16.629Z,15.35
2022-08-14T01:36:38.348Z,10.80
2022-08-14T01:39:12.650Z,12.13
2022-08-14T01:41:43.247Z,11.55
2022-08-14T01:44:32.747Z,10.45
2022-08-14T01:47:21.399Z,10.23
2022-08-14T01:50:01.381Z,9.40
2022-08-14T01:52:58.906Z,10.07
2022-08-14T01:55:31.594Z,10.40
2022-08-14T01:58:20.011Z,10.60
2022-08-14T02:00:55.735Z,11.57
2022-08-14T02:03:30.194Z,10.48
2022-08-14T02:06:04.319Z,10.68
2022-08-14T02:08:53.400Z,11.50
2022-08-14T02:11:24.536Z,11.57
2022-08-14T02:14:07.105Z,11.57
2022-08-14T02:16:45.424Z,11.82
2022-08-14T02:19:16.199Z,12.60
2022-08-14T02:21:48.905Z,14.70
2022-08-14T02:24:39.068Z,11.18
2022-08-14T02:28:21.922Z,12.70
2022-08-14T02:29:59.785Z,12.75
2022-08-14T02:32:37.092Z,15.55
2022-08-14T02:35:18.349Z,40.47
2022-08-14T02:37:49.174Z,9.57
2022-08-14T02:40:31.769Z,10.95
2022-08-14T02:43:00.846Z,13.02
2022-08-14T02:45:42.292Z,12.55
2022-08-14T02:49:04.066Z,13.52
2022-08-14T02:51:08.951Z,12.77
2022-08-14T02:53:42.249Z,11.95
2022-08-14T02:56:30.742Z,12.23
2022-08-14T02:59:05.596Z,15.02
2022-08-14T03:01:50.222Z,12.57
2022-08-14T03:04:20.335Z,11.75
2022-08-14T03:07:06.696Z,12.90
2022-08-14T03:10:25.983Z,12.20
2022-08-14T03:12:31.262Z,12.60
2022-08-14T03:15:16.327Z,12.93
2022-08-14T03:17:56.420Z,11.33
2022-08-14T03:20:26.651Z,13.60
2022-08-14T03:22:56.405Z,14.00
2022-08-14T03:25:23.954Z,13.40
2022-08-14T03:27:58.405Z,12.77
2022-08-14T03:30:40.040Z,13.10
2022-08-14T03:33:11.418Z,13.63
2022-08-14T03:36:05.279Z,14.30
2022-08-14T03:39:13.949Z,12.93
2022-08-14T03:41:23.525Z,15.02
2022-08-14T03:45:17.480Z,12.70
2022-08-14T03:46:52.904Z,14.02
2022-08-14T03:49:29.322Z,13.27
2022-08-14T03:52:01.102Z,14.77
2022-08-14T03:54:29.848Z,19.05
2022-08-14T03:57:02.843Z,14.70
2022-08-14T03:59:33.035Z,15.07
2022-08-14T04:02:02.412Z,13.15
2022-08-14T04:04:33.619Z,14.75
2022-08-14T04:07:01.394Z,14.20
2022-08-14T04:09:29.559Z,14.30
2022-08-14T04:11:57.986Z,14.37
2022-08-14T04:14:27.090Z,13.93
2022-08-14T04:16:55.135Z,13.07
2022-08-14T04:19:24.563Z,11.88
2022-08-14T04:22:02.400Z,12.23
2022-08-14T04:24:37.864Z,13.93
2022-08-14T04:27:11.798Z,12.32
2022-08-14T04:29:44.960Z,12.00
2022-08-14T04:33:02.615Z,12.23
2022-08-14T04:35:07.819Z,10.30
2022-08-14T04:37:56.919Z,9.48
2022-08-14T04:40:43.449Z,9.93
2022-08-14T04:43:32.507Z,10.18
2022-08-14T04:46:10.005Z,10.20
2022-08-14T04:48:43.775Z,11.25
2022-08-14T04:51:28.177Z,9.55
2022-08-14T04:53:57.802Z,8.77
2022-08-14T04:56:31.302Z,11.43
2022-08-14T04:59:10.488Z,6.35
2022-08-14T05:01:48.895Z,10.90
2022-08-14T05:04:20.749Z,12.40
2022-08-14T05:06:53.631Z,7.82
2022-08-14T05:09:29.002Z,6.47
2022-08-14T05:13:10.494Z,9.38
2022-08-14T05:14:53.173Z,7.70
2022-08-14T05:17:34.761Z,8.23
2022-08-14T05:21:04.772Z,9.13
2022-08-14T05:23:01.417Z,7.28
2022-08-14T05:25:31.064Z,10.65
2022-08-14T05:28:29.844Z,8.70
2022-08-14T05:31:02.103Z,7.97
2022-08-14T05:33:33.310Z,7.07
2022-08-14T05:36:07.810Z,7.65
2022-08-14T05:38:47.129Z,12.32
2022-08-14T05:41:20.060Z,8.68
2022-08-14T05:43:49.553Z,7.60
2022-08-14T05:46:23.804Z,6.80
2022-08-14T05:48:53.904Z,10.80
2022-08-14T05:51:23.006Z,7.90
2022-08-14T05:54:00.319Z,7.88
2022-08-14T05:56:38.464Z,7.28
2022-08-14T05:59:06.239Z,7.77
2022-08-14T06:01:35.501Z,6.75
2022-08-14T06:04:04.647Z,8.35
2022-08-14T06:06:38.351Z,10.43
2022-08-14T06:09:09.788Z,11.65
2022-08-14T06:11:37.947Z,12.38
2022-08-14T06:14:06.676Z,10.23
2022-08-14T06:16:40.626Z,9.95
2022-08-14T06:19:11.486Z,9.03
2022-08-14T06:21:45.985Z,5.53
2022-08-14T06:24:18.794Z,8.00
2022-08-14T06:26:54.318Z,8.10
2022-08-14T06:29:25.372Z,11.00
2022-08-14T06:32:00.657Z,10.95
2022-08-14T06:35:03.967Z,8.55
2022-08-14T06:37:49.853Z,8.00
2022-08-14T06:40:27.367Z,6.05
2022-08-14T06:43:00.335Z,5.97
2022-08-14T06:45:32.546Z,9.52
2022-08-14T06:48:01.561Z,11.52
2022-08-14T06:50:30.463Z,7.30
2022-08-14T06:53:01.449Z,8.07
2022-08-14T06:55:29.534Z,7.13
2022-08-14T06:57:58.250Z,9.18
2022-08-14T07:00:30.777Z,7.72
2022-08-14T07:03:19.465Z,8.55
2022-08-14T07:05:57.936Z,7.18
2022-08-14T07:08:31.487Z,7.28
2022-08-14T07:11:04.514Z,4.38
2022-08-14T07:13:33.474Z,4.35
2022-08-14T07:16:05.809Z,5.75
2022-08-14T07:18:34.612Z,5.95
2022-08-14T07:21:03.334Z,10.18
2022-08-14T07:23:31.572Z,8.15
2022-08-14T07:26:00.344Z,3.10
2022-08-14T07:28:32.315Z,6.85
2022-08-14T07:31:04.788Z,6.25
2022-08-14T07:33:42.058Z,10.10
2022-08-14T07:36:27.502Z,7.80
2022-08-14T07:39:00.458Z,7.07
2022-08-14T07:41:33.913Z,4.55
2022-08-14T07:44:29.115Z,8.77
2022-08-14T07:46:49.817Z,11.38
2022-08-14T07:49:18.289Z,6.50
2022-08-14T07:51:49.518Z,5.53
2022-08-14T07:54:23.697Z,4.65
2022-08-14T07:57:12.337Z,5.95
2022-08-14T07:59:47.122Z,6.47
2022-08-14T08:02:20.545Z,6.82
2022-08-14T08:04:59.647Z,8.32
2022-08-14T08:07:31.591Z,4.57
2022-08-14T08:10:02.288Z,2.67
2022-08-14T08:12:32.797Z,6.05
2022-08-14T08:15:05.707Z,6.78
2022-08-14T08:17:53.283Z,6.35
2022-08-14T08:20:27.538Z,5.75
2022-08-14T08:23:00.585Z,6.50
2022-08-14T08:25:39.802Z,5.88
2022-08-14T08:28:20.073Z,20.38
2022-08-14T08:30:54.793Z,4.65
2022-08-14T08:33:26.733Z,4.55
2022-08-14T08:36:07.850Z,5.82
2022-08-14T08:39:15.583Z,2.88
2022-08-14T08:44:05.377Z,6.32
2022-08-14T08:46:35.668Z,4.50
2022-08-14T08:51:42.873Z,8.13
2022-08-14T08:54:18.378Z,2.33
2022-08-14T08:56:52.796Z,4.03
2022-08-14T08:59:31.164Z,5.97
2022-08-14T09:02:05.601Z,5.72
2022-08-14T09:04:45.244Z,7.75
2022-08-14T09:07:28.046Z,4.75
2022-08-14T09:09:59.563Z,5.88
2022-08-14T09:12:32.539Z,5.32
2022-08-14T09:15:12.168Z,3.45
2022-08-14T09:17:44.066Z,3.90
2022-08-14T09:20:13.085Z,5.03
2022-08-14T09:25:19.623Z,4.38
2022-08-14T09:27:49.594Z,5.43
2022-08-14T09:30:32.802Z,6.57
2022-08-14T09:33:11.518Z,7.00
2022-08-14T09:35:56.907Z,4.32
2022-08-14T09:38:54.337Z,6.55
2022-08-14T09:42:20.280Z,4.30
2022-08-14T09:45:08.575Z,5.78
2022-08-14T09:47:49.294Z,5.53
2022-08-14T09:50:26.044Z,4.40
2022-08-14T09:53:17.957Z,6.50
2022-08-14T09:55:58.819Z,62.47
2022-08-14T09:58:39.324Z,4.45
2022-08-14T10:01:18.565Z,3.35
2022-08-14T10:03:53.760Z,6.22
2022-08-14T10:06:28.431Z,5.03
2022-08-14T10:09:04.616Z,3.80
2022-08-14T10:11:38.180Z,3.30
2022-08-14T10:14:35.420Z,3.63
2022-08-14T10:17:06.967Z,2.97
2022-08-14T10:19:37.220Z,2.95
2022-08-14T10:23:14.717Z,6.30
2022-08-14T10:25:00.041Z,4.82
2022-08-14T10:27:29.232Z,5.25
2022-08-14T10:30:01.268Z,4.55
2022-08-14T10:32:40.015Z,2.38
2022-08-14T10:35:17.410Z,6.30
2022-08-14T10:37:50.656Z,4.78
2022-08-14T10:40:38.681Z,3.05
2022-08-14T10:43:22.998Z,15.32
2022-08-14T10:47:37.103Z,5.38
2022-08-14T10:49:04.869Z,4.53
2022-08-14T10:54:17.088Z,2.75
2022-08-14T10:59:34.942Z,4.33
2022-08-14T11:02:04.189Z,39.42
2022-08-14T11:04:32.386Z,5.37
2022-08-14T11:07:00.636Z,4.28
2022-08-14T11:09:31.893Z,3.42
2022-08-14T11:12:40.141Z,7.13
2022-08-14T11:14:59.558Z,2.97
2022-08-14T11:17:32.163Z,4.88
2022-08-14T11:20:01.515Z,3.20
2022-08-14T11:25:23.873Z,2.30
2022-08-14T11:27:54.935Z,5.68
2022-08-14T11:30:50.559Z,2.33
2022-08-14T11:33:16.353Z,3.63
2022-08-14T11:35:48.906Z,7.03
2022-08-14T11:38:25.330Z,4.93
2022-08-14T11:40:54.410Z,4.45
2022-08-14T11:43:29.018Z,4.60
2022-08-14T11:45:57.839Z,9.00
2022-08-14T11:49:04.265Z,6.25
2022-08-14T11:51:23.707Z,3.58
2022-08-14T11:54:01.529Z,4.80
2022-08-14T11:56:41.589Z,20.15
2022-08-14T11:59:20.083Z,6.47
2022-08-14T12:01:55.337Z,3.92
2022-08-14T12:04:32.966Z,3.88
2022-08-14T12:07:01.922Z,6.10
2022-08-14T12:09:37.681Z,6.63
2022-08-14T12:12:16.250Z,2.80
2022-08-14T12:15:03.110Z,3.73
2022-08-14T12:17:34.240Z,8.68
2022-08-14T12:20:15.800Z,6.70
2022-08-14T12:22:59.394Z,22.35
2022-08-14T12:25:27.964Z,3.95
2022-08-14T12:30:43.903Z,4.63
2022-08-14T12:33:32.657Z,3.95
2022-08-14T12:36:08.737Z,4.15
2022-08-14T12:38:38.591Z,4.97
2022-08-14T12:41:20.684Z,6.15
2022-08-14T12:43:53.875Z,4.82
2022-08-14T12:46:32.379Z,6.25
2022-08-14T12:49:05.580Z,7.15
2022-08-14T12:51:35.871Z,10.13
2022-08-14T12:54:27.615Z,4.20
2022-08-14T12:57:08.676Z,5.95
2022-08-14T12:59:43.131Z,7.53
2022-08-14T13:02:26.966Z,7.72
2022-08-14T13:04:58.336Z,2.90
2022-08-14T13:07:32.512Z,3.10
2022-08-14T13:10:12.925Z,4.50
2022-08-14T13:15:47.441Z,4.28
2022-08-14T13:18:17.302Z,4.25
2022-08-14T13:20:55.463Z,2.95
2022-08-14T13:23:31.784Z,5.15
2022-08-14T13:26:00.551Z,2.75
2022-08-14T13:28:32.936Z,2.70
2022-08-14T13:31:03.953Z,4.47
2022-08-14T13:33:40.677Z,3.00
2022-08-14T13:36:23.613Z,2.28
2022-08-14T13:38:54.024Z,2.90
2022-08-14T13:41:31.483Z,3.38
2022-08-14T13:44:01.133Z,5.60
2022-08-14T13:46:28.627Z,3.53
2022-08-14T13:51:32.393Z,7.57
2022-08-14T13:54:11.079Z,6.15
2022-08-14T13:56:41.886Z,5.05
2022-08-14T13:59:12.005Z,4.28
2022-08-14T14:01:55.530Z,2.60
2022-08-14T14:04:27.216Z,2.58
2022-08-14T14:07:01.335Z,41.10
2022-08-14T14:09:32.535Z,11.48
2022-08-14T14:12:37.457Z,3.42
2022-08-14T14:15:04.994Z,2.83
2022-08-14T14:17:33.448Z,6.50
2022-08-14T14:20:01.645Z,9.85
2022-08-14T14:22:35.743Z,3.03
2022-08-14T14:25:22.241Z,3.00
2022-08-14T14:27:53.396Z,3.10
2022-08-14T14:30:51.785Z,9.20
2022-08-14T14:33:42.473Z,4.00
2022-08-14T14:36:03.056Z,3.40
2022-08-14T14:38:34.185Z,10.85
2022-08-14T14:41:04.106Z,39.63
2022-08-14T14:43:36.166Z,6.60
2022-08-14T14:46:13.259Z,5.35
2022-08-14T14:48:46.805Z,7.13
2022-08-14T14:51:22.950Z,3.72
2022-08-14T14:53:53.398Z,4.20
2022-08-14T14:56:47.361Z,6.10
2022-08-14T14:59:14.736Z,2.35
2022-08-14T15:01:50.999Z,8.18
2022-08-14T15:04:20.955Z,5.93
2022-08-14T15:06:53.151Z,7.22
2022-08-14T15:09:23.074Z,2.00
2022-08-14T15:11:51.698Z,36.45
2022-08-14T15:14:56.889Z,4.35
2022-08-14T15:17:09.283Z,3.88
2022-08-14T15:19:38.266Z,4.43
2022-08-14T15:22:07.735Z,5.75
2022-08-14T15:24:38.988Z,4.00
2022-08-14T15:27:08.428Z,3.33
2022-08-14T15:29:39.143Z,5.60
2022-08-14T15:32:10.712Z,5.22
2022-08-14T15:34:50.852Z,4.43
2022-08-14T15:37:22.873Z,5.95
2022-08-14T15:39:52.644Z,13.55
2022-08-14T15:42:23.359Z,4.68
2022-08-14T15:44:58.482Z,4.93
2022-08-14T15:47:32.653Z,5.07
2022-08-14T15:50:03.972Z,5.13
2022-08-14T15:52:34.915Z,4.07
2022-08-14T15:55:14.501Z,2.42
2022-08-14T15:58:02.219Z,4.22
2022-08-14T16:00:53.530Z,3.42
2022-08-14T16:03:25.400Z,4.35
2022-08-14T16:05:56.298Z,4.35
2022-08-14T16:08:28.586Z,6.32
2022-08-14T16:11:02.626Z,1.73
2022-08-14T16:13:40.584Z,6.75
2022-08-14T16:16:34.989Z,39.10
2022-08-14T16:19:10.305Z,3.28
2022-08-14T16:22:01.269Z,2.58
2022-08-14T16:24:33.671Z,2.38
2022-08-14T16:27:05.200Z,8.48
2022-08-14T16:29:34.735Z,5.65
2022-08-14T16:32:32.558Z,3.92
2022-08-14T16:34:55.879Z,6.57
2022-08-14T16:37:30.352Z,10.95
2022-08-14T16:40:00.690Z,9.18
2022-08-14T16:43:02.660Z,6.60
2022-08-14T16:45:27.235Z,60.35
2022-08-14T16:47:58.024Z,35.72
2022-08-14T16:50:42.993Z,26.73
2022-08-14T16:53:17.971Z,18.73
2022-08-14T16:55:51.057Z,8.13
2022-08-14T16:58:27.104Z,10.05
2022-08-14T17:01:22.668Z,20.90
2022-08-14T17:03:56.961Z,14.68
2022-08-14T17:06:36.668Z,9.05
2022-08-14T17:09:05.650Z,11.95
2022-08-14T17:11:34.327Z,8.98
2022-08-14T17:14:10.146Z,9.50
2022-08-14T17:16:39.029Z,8.82
2022-08-14T17:19:13.794Z,9.70
2022-08-14T17:21:46.927Z,5.45
2022-08-14T17:24:57.802Z,6.05
2022-08-14T17:27:07.921Z,13.82
2022-08-14T17:29:44.799Z,11.77
2022-08-14T17:32:29.643Z,18.20
2022-08-14T17:35:16.352Z,19.52
2022-08-14T17:37:46.599Z,11.93
2022-08-14T17:40:25.939Z,15.05
2022-08-14T17:43:00.905Z,9.73
2022-08-14T17:45:42.831Z,10.45
2022-08-14T17:49:10.877Z,33.10
2022-08-14T17:51:23.831Z,31.88
2022-08-14T17:54:02.509Z,53.53
2022-08-14T17:56:34.115Z,97.18
2022-08-14T17:59:07.360Z,98.30
2022-08-14T18:01:38.843Z,92.32
2022-08-14T18:04:25.062Z,92.20
2022-08-14T18:07:16.774Z,76.60
2022-08-14T18:09:57.131Z,59.03
2022-08-14T18:12:36.455Z,46.25
2022-08-14T18:15:16.205Z,49.35
2022-08-14T18:17:57.620Z,38.03
2022-08-14T18:21:42.925Z,40.40
2022-08-14T18:23:23.287Z,35.67
2022-08-14T18:25:55.999Z,31.88
2022-08-14T18:28:45.045Z,32.15
2022-08-14T18:31:29.182Z,23.02
2022-08-14T18:34:31.212Z,32.10
2022-08-14T18:37:13.922Z,35.72
2022-08-14T18:39:51.745Z,34.85
2022-08-14T18:42:35.002Z,42.47
2022-08-14T18:45:12.695Z,56.00
2022-08-14T18:48:06.913Z,61.30
2022-08-14T18:50:33.704Z,77.65
2022-08-14T18:53:10.842Z,70.05
2022-08-14T18:55:52.884Z,74.90
2022-08-14T18:58:31.290Z,70.32
2022-08-14T19:01:01.169Z,66.93
2022-08-14T19:03:36.709Z,69.82
2022-08-14T19:06:07.829Z,61.17
2022-08-14T19:08:43.254Z,64.07
2022-08-14T19:11:37.942Z,47.65
2022-08-14T19:14:06.775Z,51.72
2022-08-14T19:16:37.059Z,48.37
2022-08-14T19:19:09.923Z,59.67
2022-08-14T19:22:12.691Z,54.40
2022-08-14T19:24:44.091Z,64.60
2022-08-14T19:27:26.368Z,61.70
2022-08-14T19:30:19.284Z,66.05
2022-08-14T19:32:53.144Z,75.35
2022-08-14T19:35:49.009Z,66.55
2022-08-14T19:38:45.386Z,63.22
2022-08-14T19:41:21.433Z,54.17
2022-08-14T19:43:56.907Z,52.22
2022-08-14T19:46:39.394Z,58.72
2022-08-14T19:49:23.124Z,53.67
2022-08-14T19:51:51.075Z,48.70
2022-08-14T19:54:19.010Z,51.42
2022-08-14T19:56:46.902Z,50.42
2022-08-14T19:59:19.628Z,44.60
2022-08-14T20:01:51.243Z,48.78
2022-08-14T20:04:46.685Z,51.83
2022-08-14T20:07:59.581Z,50.83
2022-08-14T20:11:12.329Z,48.63
2022-08-14T20:13:32.277Z,52.08
2022-08-14T20:16:12.203Z,35.47
2022-08-14T20:18:50.241Z,29.58
2022-08-14T20:21:18.869Z,39.47
2022-08-14T20:23:47.829Z,42.97
2022-08-14T20:26:31.193Z,26.83
2022-08-14T20:29:04.981Z,32.40
2022-08-14T20:31:36.980Z,32.70
2022-08-14T20:34:24.201Z,29.45
2022-08-14T20:37:11.820Z,23.35
2022-08-14T20:39:54.438Z,23.55
2022-08-14T20:42:43.772Z,15.07
2022-08-14T20:45:19.758Z,22.90
2022-08-14T20:48:09.467Z,17.25
2022-08-14T20:50:44.736Z,14.98
2022-08-14T20:53:36.582Z,13.05
2022-08-14T20:56:29.033Z,16.20
2022-08-14T20:58:57.524Z,19.75
2022-08-14T21:01:25.020Z,22.88
2022-08-14T21:04:04.915Z,23.77
2022-08-14T21:07:23.245Z,20.65
2022-08-14T21:10:03.228Z,18.77
2022-08-14T21:12:33.813Z,13.63
2022-08-14T21:15:03.571Z,16.75
2022-08-14T21:20:25.953Z,20.05
2022-08-14T21:23:00.602Z,17.45
2022-08-14T21:25:31.543Z,19.90
2022-08-14T21:28:02.091Z,17.35
2022-08-14T21:30:52.046Z,14.60
2022-08-14T21:33:21.894Z,16.77
2022-08-14T21:35:54.925Z,17.08
2022-08-14T21:38:33.478Z,20.83
2022-08-14T21:41:41.594Z,14.13
2022-08-14T21:44:17.025Z,13.52
2022-08-14T21:46:51.139Z,12.13
2022-08-14T21:49:38.251Z,14.05
2022-08-14T21:52:49.339Z,15.80
2022-08-14T21:55:08.557Z,17.15
2022-08-14T21:57:56.200Z,10.80
2022-08-14T22:00:35.326Z,17.15
2022-08-14T22:03:09.827Z,12.57
2022-08-14T22:05:39.507Z,14.57
2022-08-14T22:08:12.271Z,15.48
2022-08-14T22:10:46.396Z,24.25
2022-08-14T22:13:16.852Z,15.70
2022-08-14T22:15:49.393Z,16.48
2022-08-14T22:18:21.213Z,18.45
2022-08-14T22:20:53.439Z,13.95
2022-08-14T22:23:24.135Z,11.55
2022-08-14T22:25:52.408Z,13.32
2022-08-14T22:28:33.210Z,11.98
2022-08-14T22:31:10.125Z,10.50
2022-08-14T22:33:39.890Z,12.13
2022-08-14T22:36:42.057Z,10.48
2022-08-14T22:39:10.946Z,8.52
2022-08-14T22:41:42.559Z,14.57
2022-08-14T22:44:14.968Z,13.35
2022-08-14T22:46:45.260Z,9.55
2022-08-14T22:49:16.347Z,9.95
2022-08-14T22:52:32.705Z,12.55
2022-08-14T22:54:54.573Z,12.73
2022-08-14T22:57:22.715Z,13.97
2022-08-14T22:59:50.746Z,14.43
2022-08-14T23:02:30.214Z,11.80
2022-08-14T23:04:59.447Z,10.52
2022-08-14T23:08:57.599Z,8.43
2022-08-14T23:10:32.668Z,11.50
2022-08-14T23:13:03.262Z,10.63
2022-08-14T23:15:30.778Z,10.93
2022-08-14T23:17:58.907Z,11.57
2022-08-14T23:20:29.209Z,12.50
2022-08-14T23:22:58.299Z,8.05
2022-08-14T23:25:57.392Z,8.57
2022-08-14T23:28:33.549Z,14.00
2022-08-14T23:31:10.237Z,11.00
2022-08-14T23:33:45.825Z,8.52
2022-08-14T23:36:31.778Z,15.93
2022-08-14T23:39:10.266Z,12.27
2022-08-14T23:41:46.169Z,12.07
2022-08-14T23:44:24.025Z,13.57
2022-08-14T23:46:56.878Z,13.10
2022-08-14T23:50:00.143Z,12.32
2022-08-14T23:52:56.256Z,13.90
2022-08-14T23:55:06.735Z,15.25
2022-08-14T23:57:43.580Z,13.02
